sensor_id;sensor_type;location;lat;lon;timestamp;temperature;humidity
37938;DHT22;23763;48.130;11.602;2022-09-30T00:00:19;9.40;99.90
37938;DHT22;23763;48.130;11.602;2022-09-30T00:02:45;9.40;99.90
37938;DHT22;23763;48.130;11.602;2022-09-30T00:05:11;9.40;99.90
37938;DHT22;23763;48.130;11.602;2022-09-30T00:07:36;9.40;99.90
37938;DHT22;23763;48.130;11.602;2022-09-30T00:10:02;9.40;99.90
37938;DHT22;23763;48.130;11.602;2022-09-30T00:12:28;9.30;99.90
37938;DHT22;23763;48.130;11.602;2022-09-30T00:14:54;9.40;99.90
37938;DHT22;23763;48.130;11.602;2022-09-30T00:17:19;9.40;99.90
37938;DHT22;23763;48.130;11.602;2022-09-30T00:19:45;9.40;99.90
37938;DHT22;23763;48.130;11.602;2022-09-30T00:22:11;9.40;99.90
37938;DHT22;23763;48.130;11.602;2022-09-30T00:24:37;9.40;99.90
37938;DHT22;23763;48.130;11.602;2022-09-30T00:27:02;9.40;99.90
37938;DHT22;23763;48.130;11.602;2022-09-30T00:29:28;9.40;99.90
37938;DHT22;23763;48.130;11.602;2022-09-30T00:31:54;9.30;99.90
37938;DHT22;23763;48.130;11.602;2022-09-30T00:34:19;9.30;99.90
37938;DHT22;23763;48.130;11.602;2022-09-30T00:36:51;9.30;99.90
37938;DHT22;23763;48.130;11.602;2022-09-30T00:39:19;9.30;99.90
37938;DHT22;23763;48.130;11.602;2022-09-30T00:41:50;9.20;99.90
37938;DHT22;23763;48.130;11.602;2022-09-30T00:44:54;9.20;99.90
37938;DHT22;23763;48.130;11.602;2022-09-30T00:47:34;9.20;99.90
37938;DHT22;23763;48.130;11.602;2022-09-30T00:53:20;9.20;99.90
37938;DHT22;23763;48.130;11.602;2022-09-30T00:55:57;9.20;99.90
37938;DHT22;23763;48.130;11.602;2022-09-30T01:00:54;9.10;99.90
37938;DHT22;23763;48.130;11.602;2022-09-30T01:03:20;9.00;99.90
37938;DHT22;23763;48.130;11.602;2022-09-30T01:05:48;9.00;99.90
37938;DHT22;23763;48.130;11.602;2022-09-30T01:08:15;8.90;99.90
37938;DHT22;23763;48.130;11.602;2022-09-30T01:10:43;9.00;99.90
37938;DHT22;23763;48.130;11.602;2022-09-30T01:13:08;8.90;99.90
37938;DHT22;23763;48.130;11.602;2022-09-30T01:35:10;9.10;99.90
37938;DHT22;23763;48.130;11.602;2022-09-30T01:40:35;9.10;99.90
37938;DHT22;23763;48.130;11.602;2022-09-30T01:43:10;9.10;99.90
37938;DHT22;23763;48.130;11.602;2022-09-30T01:46:04;9.20;99.90
37938;DHT22;23763;48.130;11.602;2022-09-30T01:53:56;9.30;99.90
37938;DHT22;23763;48.130;11.602;2022-09-30T01:56:42;9.30;99.90
37938;DHT22;23763;48.130;11.602;2022-09-30T02:01:45;9.30;99.90
37938;DHT22;23763;48.130;11.602;2022-09-30T02:04:18;9.40;99.90
37938;DHT22;23763;48.130;11.602;2022-09-30T02:06:49;9.40;99.90
37938;DHT22;23763;48.130;11.602;2022-09-30T02:09:39;9.40;99.90
37938;DHT22;23763;48.130;11.602;2022-09-30T02:12:08;9.40;99.90
37938;DHT22;23763;48.130;11.602;2022-09-30T02:14:48;9.30;99.90
37938;DHT22;23763;48.130;11.602;2022-09-30T02:17:43;9.20;99.90
37938;DHT22;23763;48.130;11.602;2022-09-30T02:20:25;9.30;99.90
37938;DHT22;23763;48.130;11.602;2022-09-30T02:23:15;9.30;99.90
37938;DHT22;23763;48.130;11.602;2022-09-30T02:25:46;9.40;99.90
37938;DHT22;23763;48.130;11.602;2022-09-30T02:28:22;9.40;99.90
37938;DHT22;23763;48.130;11.602;2022-09-30T02:30:53;9.40;99.90
37938;DHT22;23763;48.130;11.602;2022-09-30T02:36:02;9.40;99.90
37938;DHT22;23763;48.130;11.602;2022-09-30T02:38:35;9.30;99.90
37938;DHT22;23763;48.130;11.602;2022-09-30T02:41:10;9.30;99.90
37938;DHT22;23763;48.130;11.602;2022-09-30T02:43:37;9.30;99.90
37938;DHT22;23763;48.130;11.602;2022-09-30T02:46:22;9.30;99.90
37938;DHT22;23763;48.130;11.602;2022-09-30T02:49:16;9.30;99.90
37938;DHT22;23763;48.130;11.602;2022-09-30T02:52:05;9.30;99.90
37938;DHT22;23763;48.130;11.602;2022-09-30T02:54:53;9.20;99.90
37938;DHT22;23763;48.130;11.602;2022-09-30T02:59:59;9.10;99.90
37938;DHT22;23763;48.130;11.602;2022-09-30T03:02:24;9.10;99.90
37938;DHT22;23763;48.130;11.602;2022-09-30T03:04:50;9.10;99.90
37938;DHT22;23763;48.130;11.602;2022-09-30T03:07:16;9.10;99.90
37938;DHT22;23763;48.130;11.602;2022-09-30T03:09:42;9.30;99.90
37938;DHT22;23763;48.130;11.602;2022-09-30T03:12:36;9.20;99.90
37938;DHT22;23763;48.130;11.602;2022-09-30T03:25:52;9.10;99.90
37938;DHT22;23763;48.130;11.602;2022-09-30T03:28:25;9.10;99.90
37938;DHT22;23763;48.130;11.602;2022-09-30T03:31:02;9.20;99.90
37938;DHT22;23763;48.130;11.602;2022-09-30T03:33:33;9.20;99.90
37938;DHT22;23763;48.130;11.602;2022-09-30T03:41:46;9.30;99.90
37938;DHT22;23763;48.130;11.602;2022-09-30T03:44:18;9.30;99.90
37938;DHT22;23763;48.130;11.602;2022-09-30T03:47:11;9.20;99.90
37938;DHT22;23763;48.130;11.602;2022-09-30T03:49:51;9.20;99.90
37938;DHT22;23763;48.130;11.602;2022-09-30T03:52:17;9.20;99.90
37938;DHT22;23763;48.130;11.602;2022-09-30T03:54:52;9.10;99.90
37938;DHT22;23763;48.130;11.602;2022-09-30T03:57:18;9.30;99.90
37938;DHT22;23763;48.130;11.602;2022-09-30T03:59:44;9.10;99.90
37938;DHT22;23763;48.130;11.602;2022-09-30T04:02:10;9.20;99.90
37938;DHT22;23763;48.130;11.602;2022-09-30T04:04:38;9.30;99.90
37938;DHT22;23763;48.130;11.602;2022-09-30T04:07:04;9.20;99.90
37938;DHT22;23763;48.130;11.602;2022-09-30T04:09:30;9.20;99.90
37938;DHT22;23763;48.130;11.602;2022-09-30T04:11:55;9.30;99.90
37938;DHT22;23763;48.130;11.602;2022-09-30T04:14:21;9.20;99.90
37938;DHT22;23763;48.130;11.602;2022-09-30T04:16:46;9.30;99.90
37938;DHT22;23763;48.130;11.602;2022-09-30T04:19:12;9.30;99.90
37938;DHT22;23763;48.130;11.602;2022-09-30T04:21:37;9.30;99.90
37938;DHT22;23763;48.130;11.602;2022-09-30T04:24:03;9.20;99.90
37938;DHT22;23763;48.130;11.602;2022-09-30T04:26:29;9.20;99.90
37938;DHT22;23763;48.130;11.602;2022-09-30T04:28:54;9.30;99.90
37938;DHT22;23763;48.130;11.602;2022-09-30T04:31:23;9.30;99.90
37938;DHT22;23763;48.130;11.602;2022-09-30T04:33:49;9.30;99.90
37938;DHT22;23763;48.130;11.602;2022-09-30T04:36:15;9.30;99.90
37938;DHT22;23763;48.130;11.602;2022-09-30T04:38:41;9.20;99.90
37938;DHT22;23763;48.130;11.602;2022-09-30T04:41:08;9.10;99.90
37938;DHT22;23763;48.130;11.602;2022-09-30T04:43:35;9.10;99.90
37938;DHT22;23763;48.130;11.602;2022-09-30T04:46:01;9.00;99.90
37938;DHT22;23763;48.130;11.602;2022-09-30T04:48:27;9.00;99.90
37938;DHT22;23763;48.130;11.602;2022-09-30T04:50:56;9.10;99.90
37938;DHT22;23763;48.130;11.602;2022-09-30T04:53:22;9.10;99.90
37938;DHT22;23763;48.130;11.602;2022-09-30T04:55:48;9.10;99.90
37938;DHT22;23763;48.130;11.602;2022-09-30T04:58:14;9.10;99.90
37938;DHT22;23763;48.130;11.602;2022-09-30T05:00:39;9.00;99.90
37938;DHT22;23763;48.130;11.602;2022-09-30T05:03:05;9.00;99.90
37938;DHT22;23763;48.130;11.602;2022-09-30T05:05:31;9.10;99.90
37938;DHT22;23763;48.130;11.602;2022-09-30T05:08:02;9.10;99.90
37938;DHT22;23763;48.130;11.602;2022-09-30T05:10:27;9.10;99.90
37938;DHT22;23763;48.130;11.602;2022-09-30T05:12:54;9.20;99.90
37938;DHT22;23763;48.130;11.602;2022-09-30T05:15:21;9.20;99.90
37938;DHT22;23763;48.130;11.602;2022-09-30T05:17:49;9.20;99.90
37938;DHT22;23763;48.130;11.602;2022-09-30T05:20:15;9.10;99.90
37938;DHT22;23763;48.130;11.602;2022-09-30T05:22:41;9.20;99.90
37938;DHT22;23763;48.130;11.602;2022-09-30T05:25:07;9.20;99.90
37938;DHT22;23763;48.130;11.602;2022-09-30T05:27:32;9.10;99.90
37938;DHT22;23763;48.130;11.602;2022-09-30T05:29:59;9.10;99.90
37938;DHT22;23763;48.130;11.602;2022-09-30T05:32:25;9.00;99.90
37938;DHT22;23763;48.130;11.602;2022-09-30T05:34:51;9.00;99.90
37938;DHT22;23763;48.130;11.602;2022-09-30T05:37:16;9.00;99.90
37938;DHT22;23763;48.130;11.602;2022-09-30T05:39:42;8.90;99.90
37938;DHT22;23763;48.130;11.602;2022-09-30T05:42:07;9.00;99.90
37938;DHT22;23763;48.130;11.602;2022-09-30T05:44:33;9.10;99.90
37938;DHT22;23763;48.130;11.602;2022-09-30T05:46:59;9.00;99.90
37938;DHT22;23763;48.130;11.602;2022-09-30T05:49:25;9.10;99.90
37938;DHT22;23763;48.130;11.602;2022-09-30T05:51:51;9.20;99.90
37938;DHT22;23763;48.130;11.602;2022-09-30T05:54:17;9.20;99.90
37938;DHT22;23763;48.130;11.602;2022-09-30T05:56:42;9.10;99.90
37938;DHT22;23763;48.130;11.602;2022-09-30T05:59:08;9.20;99.90
37938;DHT22;23763;48.130;11.602;2022-09-30T06:01:34;9.20;99.90
37938;DHT22;23763;48.130;11.602;2022-09-30T06:04:00;9.30;99.90
37938;DHT22;23763;48.130;11.602;2022-09-30T06:06:26;9.50;99.90
37938;DHT22;23763;48.130;11.602;2022-09-30T06:08:51;9.60;99.90
37938;DHT22;23763;48.130;11.602;2022-09-30T06:11:19;9.70;99.90
37938;DHT22;23763;48.130;11.602;2022-09-30T06:13:46;9.80;99.90
37938;DHT22;23763;48.130;11.602;2022-09-30T06:16:14;10.00;99.90
37938;DHT22;23763;48.130;11.602;2022-09-30T06:18:40;10.10;99.90
37938;DHT22;23763;48.130;11.602;2022-09-30T06:21:07;10.30;99.90
37938;DHT22;23763;48.130;11.602;2022-09-30T06:23:34;10.30;99.90
37938;DHT22;23763;48.130;11.602;2022-09-30T06:26:01;10.20;99.90
37938;DHT22;23763;48.130;11.602;2022-09-30T06:28:27;10.10;99.90
37938;DHT22;23763;48.130;11.602;2022-09-30T06:30:53;10.20;99.90
37938;DHT22;23763;48.130;11.602;2022-09-30T06:33:19;10.20;99.90
37938;DHT22;23763;48.130;11.602;2022-09-30T06:35:45;10.40;99.90
37938;DHT22;23763;48.130;11.602;2022-09-30T06:38:13;10.40;99.90
37938;DHT22;23763;48.130;11.602;2022-09-30T06:40:41;10.50;99.90
37938;DHT22;23763;48.130;11.602;2022-09-30T06:43:07;10.40;99.90
37938;DHT22;23763;48.130;11.602;2022-09-30T06:45:34;10.40;99.90
37938;DHT22;23763;48.130;11.602;2022-09-30T06:48:02;10.50;99.90
37938;DHT22;23763;48.130;11.602;2022-09-30T06:50:32;10.60;99.90
37938;DHT22;23763;48.130;11.602;2022-09-30T06:52:58;10.80;99.90
37938;DHT22;23763;48.130;11.602;2022-09-30T06:55:25;11.00;99.90
37938;DHT22;23763;48.130;11.602;2022-09-30T06:57:52;11.00;99.90
37938;DHT22;23763;48.130;11.602;2022-09-30T07:00:17;11.00;99.90
37938;DHT22;23763;48.130;11.602;2022-09-30T07:02:43;11.10;99.90
37938;DHT22;23763;48.130;11.602;2022-09-30T07:05:09;11.20;99.90
37938;DHT22;23763;48.130;11.602;2022-09-30T07:07:35;11.40;99.90
37938;DHT22;23763;48.130;11.602;2022-09-30T07:10:02;11.60;99.90
37938;DHT22;23763;48.130;11.602;2022-09-30T07:12:28;11.60;99.90
37938;DHT22;23763;48.130;11.602;2022-09-30T07:14:54;11.70;99.90
37938;DHT22;23763;48.130;11.602;2022-09-30T07:17:27;11.60;99.90
37938;DHT22;23763;48.130;11.602;2022-09-30T07:19:53;11.60;99.90
37938;DHT22;23763;48.130;11.602;2022-09-30T07:22:19;11.70;99.90
37938;DHT22;23763;48.130;11.602;2022-09-30T07:24:58;12.00;99.90
37938;DHT22;23763;48.130;11.602;2022-09-30T07:27:28;11.80;99.90
37938;DHT22;23763;48.130;11.602;2022-09-30T07:29:56;11.90;99.90
37938;DHT22;23763;48.130;11.602;2022-09-30T07:32:22;11.90;99.90
37938;DHT22;23763;48.130;11.602;2022-09-30T07:34:47;11.70;99.90
37938;DHT22;23763;48.130;11.602;2022-09-30T07:37:15;11.90;99.90
37938;DHT22;23763;48.130;11.602;2022-09-30T07:39:42;12.10;99.90
37938;DHT22;23763;48.130;11.602;2022-09-30T07:42:09;11.80;99.90
37938;DHT22;23763;48.130;11.602;2022-09-30T07:44:35;11.70;99.90
37938;DHT22;23763;48.130;11.602;2022-09-30T07:47:06;11.80;99.90
37938;DHT22;23763;48.130;11.602;2022-09-30T07:49:32;11.90;99.90
37938;DHT22;23763;48.130;11.602;2022-09-30T07:51:59;12.00;99.90
37938;DHT22;23763;48.130;11.602;2022-09-30T07:54:29;12.00;99.90
37938;DHT22;23763;48.130;11.602;2022-09-30T07:56:55;12.10;99.90
37938;DHT22;23763;48.130;11.602;2022-09-30T07:59:21;12.20;99.90
37938;DHT22;23763;48.130;11.602;2022-09-30T08:01:47;12.40;99.90
37938;DHT22;23763;48.130;11.602;2022-09-30T08:04:14;12.40;99.90
37938;DHT22;23763;48.130;11.602;2022-09-30T08:06:46;12.10;99.90
37938;DHT22;23763;48.130;11.602;2022-09-30T08:09:14;12.10;99.90
37938;DHT22;23763;48.130;11.602;2022-09-30T08:11:40;12.30;99.90
37938;DHT22;23763;48.130;11.602;2022-09-30T08:14:11;12.40;99.90
37938;DHT22;23763;48.130;11.602;2022-09-30T08:16:37;12.50;99.90
37938;DHT22;23763;48.130;11.602;2022-09-30T08:19:02;12.50;99.90
37938;DHT22;23763;48.130;11.602;2022-09-30T08:21:29;12.70;99.90
37938;DHT22;23763;48.130;11.602;2022-09-30T08:23:56;13.10;99.90
37938;DHT22;23763;48.130;11.602;2022-09-30T08:26:22;13.60;99.90
37938;DHT22;23763;48.130;11.602;2022-09-30T08:28:49;14.00;99.90
37938;DHT22;23763;48.130;11.602;2022-09-30T08:31:17;14.00;99.90
37938;DHT22;23763;48.130;11.602;2022-09-30T08:33:43;14.30;99.90
37938;DHT22;23763;48.130;11.602;2022-09-30T08:36:10;14.60;99.90
37938;DHT22;23763;48.130;11.602;2022-09-30T08:38:37;14.70;99.90
37938;DHT22;23763;48.130;11.602;2022-09-30T08:52:16;14.60;99.90
37938;DHT22;23763;48.130;11.602;2022-09-30T08:54:46;14.70;99.90
37938;DHT22;23763;48.130;11.602;2022-09-30T08:57:12;14.50;99.90
37938;DHT22;23763;48.130;11.602;2022-09-30T08:59:51;14.50;99.90
37938;DHT22;23763;48.130;11.602;2022-09-30T09:02:33;14.20;99.90
37938;DHT22;23763;48.130;11.602;2022-09-30T09:05:04;13.90;99.90
37938;DHT22;23763;48.130;11.602;2022-09-30T09:07:51;13.50;99.90
37938;DHT22;23763;48.130;11.602;2022-09-30T09:13:53;13.20;99.90
37938;DHT22;23763;48.130;11.602;2022-09-30T09:16:34;13.30;99.90
37938;DHT22;23763;48.130;11.602;2022-09-30T09:21:55;13.80;99.90
37938;DHT22;23763;48.130;11.602;2022-09-30T09:24:43;13.90;99.90
37938;DHT22;23763;48.130;11.602;2022-09-30T09:29:55;14.10;99.90
37938;DHT22;23763;48.130;11.602;2022-09-30T09:32:25;14.40;99.90
37938;DHT22;23763;48.130;11.602;2022-09-30T09:34:56;14.30;99.90
37938;DHT22;23763;48.130;11.602;2022-09-30T09:40:37;14.00;99.90
37938;DHT22;23763;48.130;11.602;2022-09-30T09:43:21;13.60;99.90
37938;DHT22;23763;48.130;11.602;2022-09-30T09:46:03;13.60;99.90
37938;DHT22;23763;48.130;11.602;2022-09-30T09:48:33;13.50;99.90
37938;DHT22;23763;48.130;11.602;2022-09-30T09:53:52;14.10;99.90
37938;DHT22;23763;48.130;11.602;2022-09-30T09:56:26;14.10;99.90
37938;DHT22;23763;48.130;11.602;2022-09-30T09:59:07;14.00;99.90
37938;DHT22;23763;48.130;11.602;2022-09-30T10:01:36;13.90;99.90
37938;DHT22;23763;48.130;11.602;2022-09-30T10:06:58;14.20;99.90
37938;DHT22;23763;48.130;11.602;2022-09-30T10:09:32;14.40;99.90
37938;DHT22;23763;48.130;11.602;2022-09-30T10:14:51;14.30;99.90
37938;DHT22;23763;48.130;11.602;2022-09-30T10:17:19;14.00;99.90
37938;DHT22;23763;48.130;11.602;2022-09-30T10:19:54;14.10;99.90
37938;DHT22;23763;48.130;11.602;2022-09-30T10:22:29;14.40;99.90
37938;DHT22;23763;48.130;11.602;2022-09-30T10:25:16;14.10;99.90
37938;DHT22;23763;48.130;11.602;2022-09-30T10:27:56;14.20;99.90
37938;DHT22;23763;48.130;11.602;2022-09-30T10:30:44;13.90;99.90
37938;DHT22;23763;48.130;11.602;2022-09-30T10:33:19;13.80;99.90
37938;DHT22;23763;48.130;11.602;2022-09-30T10:35:54;14.00;99.90
37938;DHT22;23763;48.130;11.602;2022-09-30T10:38:22;14.10;99.90
37938;DHT22;23763;48.130;11.602;2022-09-30T10:40:50;14.40;99.90
37938;DHT22;23763;48.130;11.602;2022-09-30T10:43:32;14.70;99.90
37938;DHT22;23763;48.130;11.602;2022-09-30T10:45:58;14.80;99.90
37938;DHT22;23763;48.130;11.602;2022-09-30T10:48:32;14.80;99.90
37938;DHT22;23763;48.130;11.602;2022-09-30T10:50:59;14.90;99.90
37938;DHT22;23763;48.130;11.602;2022-09-30T10:53:31;15.00;99.90
37938;DHT22;23763;48.130;11.602;2022-09-30T10:55:57;14.90;99.90
37938;DHT22;23763;48.130;11.602;2022-09-30T10:58:42;14.90;99.90
37938;DHT22;23763;48.130;11.602;2022-09-30T11:01:35;15.00;99.90
37938;DHT22;23763;48.130;11.602;2022-09-30T11:04:09;14.90;99.90
37938;DHT22;23763;48.130;11.602;2022-09-30T11:06:39;14.70;99.90
37938;DHT22;23763;48.130;11.602;2022-09-30T11:12:16;14.50;99.90
37938;DHT22;23763;48.130;11.602;2022-09-30T11:14:54;14.30;99.90
37938;DHT22;23763;48.130;11.602;2022-09-30T11:20:22;14.20;99.90
37938;DHT22;23763;48.130;11.602;2022-09-30T11:25:46;14.00;99.90
37938;DHT22;23763;48.130;11.602;2022-09-30T11:31:10;13.90;99.90
37938;DHT22;23763;48.130;11.602;2022-09-30T11:33:54;13.70;99.90
37938;DHT22;23763;48.130;11.602;2022-09-30T11:41:32;13.50;99.90
37938;DHT22;23763;48.130;11.602;2022-09-30T11:47:29;13.70;99.90
37938;DHT22;23763;48.130;11.602;2022-09-30T11:58:13;14.70;99.90
37938;DHT22;23763;48.130;11.602;2022-09-30T12:00:44;14.70;99.90
37938;DHT22;23763;48.130;11.602;2022-09-30T12:03:12;14.60;99.90
37938;DHT22;23763;48.130;11.602;2022-09-30T12:05:50;14.60;99.90
37938;DHT22;23763;48.130;11.602;2022-09-30T12:08:33;14.70;99.90
37938;DHT22;23763;48.130;11.602;2022-09-30T12:11:06;14.70;99.90
37938;DHT22;23763;48.130;11.602;2022-09-30T12:13:36;14.80;99.90
37938;DHT22;23763;48.130;11.602;2022-09-30T12:16:09;14.90;99.90
37938;DHT22;23763;48.130;11.602;2022-09-30T12:18:39;14.80;99.90
37938;DHT22;23763;48.130;11.602;2022-09-30T12:21:19;14.80;99.90
37938;DHT22;23763;48.130;11.602;2022-09-30T12:24:01;14.90;99.90
37938;DHT22;23763;48.130;11.602;2022-09-30T12:26:29;15.00;99.90
37938;DHT22;23763;48.130;11.602;2022-09-30T12:28:59;15.20;99.90
37938;DHT22;23763;48.130;11.602;2022-09-30T12:32:11;14.90;99.90
37938;DHT22;23763;48.130;11.602;2022-09-30T12:37:32;14.90;99.90
37938;DHT22;23763;48.130;11.602;2022-09-30T12:47:49;14.40;99.90
37938;DHT22;23763;48.130;11.602;2022-09-30T12:50:20;14.40;99.90
37938;DHT22;23763;48.130;11.602;2022-09-30T12:52:47;14.40;99.90
37938;DHT22;23763;48.130;11.602;2022-09-30T12:55:24;14.70;99.90
37938;DHT22;23763;48.130;11.602;2022-09-30T12:57:52;14.60;99.90
37938;DHT22;23763;48.130;11.602;2022-09-30T13:00:21;14.80;99.90
37938;DHT22;23763;48.130;11.602;2022-09-30T13:02:57;14.90;99.90
37938;DHT22;23763;48.130;11.602;2022-09-30T13:13:55;15.00;99.90
37938;DHT22;23763;48.130;11.602;2022-09-30T13:16:12;15.20;99.90
37938;DHT22;23763;48.130;11.602;2022-09-30T13:23:51;14.90;99.90
37938;DHT22;23763;48.130;11.602;2022-09-30T13:31:29;14.90;99.90
37938;DHT22;23763;48.130;11.602;2022-09-30T13:36:28;14.70;99.90
37938;DHT22;23763;48.130;11.602;2022-09-30T13:41:43;15.00;99.90
37938;DHT22;23763;48.130;11.602;2022-09-30T13:44:18;15.20;99.90
37938;DHT22;23763;48.130;11.602;2022-09-30T13:46:48;15.10;99.90
37938;DHT22;23763;48.130;11.602;2022-09-30T13:49:37;15.20;99.90
37938;DHT22;23763;48.130;11.602;2022-09-30T13:52:07;15.10;99.90
37938;DHT22;23763;48.130;11.602;2022-09-30T13:54:39;14.90;99.90
37938;DHT22;23763;48.130;11.602;2022-09-30T13:57:17;14.80;99.90
37938;DHT22;23763;48.130;11.602;2022-09-30T13:59:59;14.70;99.90
37938;DHT22;23763;48.130;11.602;2022-09-30T14:08:37;14.60;99.90
37938;DHT22;23763;48.130;11.602;2022-09-30T14:14:05;14.60;99.90
37938;DHT22;23763;48.130;11.602;2022-09-30T14:21:42;14.70;99.90
37938;DHT22;23763;48.130;11.602;2022-09-30T14:24:29;14.80;99.90
37938;DHT22;23763;48.130;11.602;2022-09-30T14:29:51;14.60;99.90
37938;DHT22;23763;48.130;11.602;2022-09-30T14:32:29;14.70;99.90
37938;DHT22;23763;48.130;11.602;2022-09-30T14:34:57;14.50;99.90
37938;DHT22;23763;48.130;11.602;2022-09-30T14:37:28;14.50;99.90
37938;DHT22;23763;48.130;11.602;2022-09-30T14:39:55;14.40;99.90
37938;DHT22;23763;48.130;11.602;2022-09-30T14:42:26;14.40;99.90
37938;DHT22;23763;48.130;11.602;2022-09-30T14:44:56;14.50;99.90
37938;DHT22;23763;48.130;11.602;2022-09-30T14:47:34;14.50;99.90
37938;DHT22;23763;48.130;11.602;2022-09-30T14:50:13;14.50;99.90
37938;DHT22;23763;48.130;11.602;2022-09-30T14:52:45;14.30;99.90
37938;DHT22;23763;48.130;11.602;2022-09-30T14:55:29;14.40;99.90
37938;DHT22;23763;48.130;11.602;2022-09-30T15:00:45;14.20;99.90
37938;DHT22;23763;48.130;11.602;2022-09-30T15:03:13;14.10;99.90
37938;DHT22;23763;48.130;11.602;2022-09-30T15:05:39;14.10;99.90
37938;DHT22;23763;48.130;11.602;2022-09-30T15:08:31;14.10;99.90
37938;DHT22;23763;48.130;11.602;2022-09-30T15:10:57;14.30;99.90
37938;DHT22;23763;48.130;11.602;2022-09-30T15:13:25;14.30;99.90
37938;DHT22;23763;48.130;11.602;2022-09-30T15:15:52;14.00;99.90
37938;DHT22;23763;48.130;11.602;2022-09-30T15:18:41;13.90;99.90
37938;DHT22;23763;48.130;11.602;2022-09-30T15:21:11;13.90;99.90
37938;DHT22;23763;48.130;11.602;2022-09-30T15:23:40;13.90;99.90
37938;DHT22;23763;48.130;11.602;2022-09-30T15:26:07;14.00;99.90
37938;DHT22;23763;48.130;11.602;2022-09-30T15:28:35;14.00;99.90
37938;DHT22;23763;48.130;11.602;2022-09-30T15:31:02;14.00;99.90
37938;DHT22;23763;48.130;11.602;2022-09-30T15:33:29;14.10;99.90
37938;DHT22;23763;48.130;11.602;2022-09-30T15:36:05;14.20;99.90
37938;DHT22;23763;48.130;11.602;2022-09-30T15:38:33;14.20;99.90
37938;DHT22;23763;48.130;11.602;2022-09-30T15:41:07;14.30;99.90
37938;DHT22;23763;48.130;11.602;2022-09-30T15:43:40;14.30;99.90
37938;DHT22;23763;48.130;11.602;2022-09-30T15:48:44;14.00;99.90
37938;DHT22;23763;48.130;11.602;2022-09-30T15:51:40;13.90;99.90
37938;DHT22;23763;48.130;11.602;2022-09-30T15:56:44;14.00;99.90
37938;DHT22;23763;48.130;11.602;2022-09-30T15:59:12;14.00;99.90
37938;DHT22;23763;48.130;11.602;2022-09-30T16:01:43;14.00;99.90
37938;DHT22;23763;48.130;11.602;2022-09-30T16:04:30;14.00;99.90
37938;DHT22;23763;48.130;11.602;2022-09-30T16:06:59;14.10;99.90
37938;DHT22;23763;48.130;11.602;2022-09-30T16:09:32;13.90;99.90
37938;DHT22;23763;48.130;11.602;2022-09-30T16:12:02;13.90;99.90
37938;DHT22;23763;48.130;11.602;2022-09-30T16:14:32;13.80;99.90
37938;DHT22;23763;48.130;11.602;2022-09-30T16:17:01;13.80;99.90
37938;DHT22;23763;48.130;11.602;2022-09-30T16:19:29;13.70;99.90
37938;DHT22;23763;48.130;11.602;2022-09-30T16:21:55;13.70;99.90
37938;DHT22;23763;48.130;11.602;2022-09-30T16:26:51;13.60;99.90
37938;DHT22;23763;48.130;11.602;2022-09-30T16:29:17;13.60;99.90
37938;DHT22;23763;48.130;11.602;2022-09-30T16:31:44;13.50;99.90
37938;DHT22;23763;48.130;11.602;2022-09-30T16:34:28;13.50;99.90
37938;DHT22;23763;48.130;11.602;2022-09-30T16:37:02;13.40;99.90
37938;DHT22;23763;48.130;11.602;2022-09-30T16:39:29;13.40;99.90
37938;DHT22;23763;48.130;11.602;2022-09-30T16:41:55;13.40;99.90
37938;DHT22;23763;48.130;11.602;2022-09-30T16:44:20;13.40;99.90
37938;DHT22;23763;48.130;11.602;2022-09-30T16:46:48;13.40;99.90
37938;DHT22;23763;48.130;11.602;2022-09-30T16:49:15;13.40;99.90
37938;DHT22;23763;48.130;11.602;2022-09-30T16:51:42;13.30;99.90
37938;DHT22;23763;48.130;11.602;2022-09-30T16:54:08;13.30;99.90
37938;DHT22;23763;48.130;11.602;2022-09-30T16:56:34;13.30;99.90
37938;DHT22;23763;48.130;11.602;2022-09-30T16:59:00;13.30;99.90
37938;DHT22;23763;48.130;11.602;2022-09-30T17:01:25;13.20;99.90
37938;DHT22;23763;48.130;11.602;2022-09-30T17:03:52;13.10;99.90
37938;DHT22;23763;48.130;11.602;2022-09-30T17:06:24;13.10;99.90
37938;DHT22;23763;48.130;11.602;2022-09-30T17:08:50;13.10;99.90
37938;DHT22;23763;48.130;11.602;2022-09-30T17:11:18;13.00;99.90
37938;DHT22;23763;48.130;11.602;2022-09-30T17:13:44;13.00;99.90
37938;DHT22;23763;48.130;11.602;2022-09-30T17:16:11;13.10;99.90
37938;DHT22;23763;48.130;11.602;2022-09-30T17:18:36;13.10;99.90
37938;DHT22;23763;48.130;11.602;2022-09-30T17:21:02;13.00;99.90
37938;DHT22;23763;48.130;11.602;2022-09-30T17:23:28;13.00;99.90
37938;DHT22;23763;48.130;11.602;2022-09-30T17:25:54;13.00;99.90
37938;DHT22;23763;48.130;11.602;2022-09-30T17:28:20;13.00;99.90
37938;DHT22;23763;48.130;11.602;2022-09-30T17:30:47;13.10;99.90
37938;DHT22;23763;48.130;11.602;2022-09-30T17:33:13;13.10;99.90
37938;DHT22;23763;48.130;11.602;2022-09-30T17:35:40;13.10;99.90
37938;DHT22;23763;48.130;11.602;2022-09-30T17:38:10;13.00;99.90
37938;DHT22;23763;48.130;11.602;2022-09-30T17:40:37;13.00;99.90
37938;DHT22;23763;48.130;11.602;2022-09-30T17:43:21;13.10;99.90
37938;DHT22;23763;48.130;11.602;2022-09-30T17:45:47;13.10;99.90
37938;DHT22;23763;48.130;11.602;2022-09-30T17:48:15;13.10;99.90
37938;DHT22;23763;48.130;11.602;2022-09-30T17:50:44;13.10;99.90
37938;DHT22;23763;48.130;11.602;2022-09-30T17:53:14;13.20;99.90
37938;DHT22;23763;48.130;11.602;2022-09-30T17:55:42;13.20;99.90
37938;DHT22;23763;48.130;11.602;2022-09-30T17:58:11;13.10;99.90
37938;DHT22;23763;48.130;11.602;2022-09-30T18:00:37;13.10;99.90
37938;DHT22;23763;48.130;11.602;2022-09-30T18:03:03;13.10;99.90
37938;DHT22;23763;48.130;11.602;2022-09-30T18:05:30;13.10;99.90
37938;DHT22;23763;48.130;11.602;2022-09-30T18:07:56;13.10;99.90
37938;DHT22;23763;48.130;11.602;2022-09-30T18:10:22;13.00;99.90
37938;DHT22;23763;48.130;11.602;2022-09-30T18:12:48;13.00;99.90
37938;DHT22;23763;48.130;11.602;2022-09-30T18:15:16;13.10;99.90
37938;DHT22;23763;48.130;11.602;2022-09-30T18:17:42;13.10;99.90
37938;DHT22;23763;48.130;11.602;2022-09-30T18:20:09;13.10;99.90
37938;DHT22;23763;48.130;11.602;2022-09-30T18:22:35;13.10;99.90
37938;DHT22;23763;48.130;11.602;2022-09-30T18:25:00;13.10;99.90
37938;DHT22;23763;48.130;11.602;2022-09-30T18:27:57;13.20;99.90
37938;DHT22;23763;48.130;11.602;2022-09-30T18:30:24;13.20;99.90
37938;DHT22;23763;48.130;11.602;2022-09-30T18:32:52;13.10;99.90
37938;DHT22;23763;48.130;11.602;2022-09-30T18:35:20;13.10;99.90
37938;DHT22;23763;48.130;11.602;2022-09-30T18:37:46;13.00;99.90
37938;DHT22;23763;48.130;11.602;2022-09-30T18:40:15;13.00;99.90